createdAt,value
2023-04-10T00:01:03.320Z,28.39
2023-04-10T00:03:35.517Z,27.64
2023-04-10T00:06:07.280Z,28.30
2023-04-10T00:08:38.627Z,27.38
2023-04-10T00:11:10.034Z,27.78
2023-04-10T00:13:41.539Z,28.13
2023-04-10T00:16:13.700Z,26.94
2023-04-10T00:18:44.668Z,27.44
2023-04-10T00:21:15.924Z,28.32
2023-04-10T00:23:47.234Z,28.07
2023-04-10T00:26:18.183Z,28.24
2023-04-10T00:28:48.876Z,28.35
2023-04-10T00:31:20.229Z,28.35
2023-04-10T00:33:52.081Z,27.93
2023-04-10T00:36:24.742Z,27.28
2023-04-10T00:38:56.900Z,27.34
2023-04-10T00:41:28.810Z,28.23
2023-04-10T00:44:00.363Z,28.30
2023-04-10T00:46:33.912Z,27.64
2023-04-10T00:49:05.455Z,28.92
2023-04-10T00:51:37.288Z,27.85
2023-04-10T00:54:07.977Z,27.31
2023-04-10T00:56:40.482Z,26.88
2023-04-10T00:59:10.827Z,26.79
2023-04-10T01:01:42.205Z,27.19
2023-04-10T01:04:14.759Z,28.63
2023-04-10T01:07:07.815Z,26.98
2023-04-10T01:10:08.038Z,28.48
2023-04-10T01:13:07.212Z,28.35
2023-04-10T01:15:52.208Z,27.47
2023-04-10T01:18:52.525Z,26.77
2023-04-10T01:21:24.263Z,27.11
2023-04-10T01:24:27.369Z,25.97
2023-04-10T01:27:26.081Z,26.26
2023-04-10T01:29:59.792Z,25.68
2023-04-10T01:32:33.968Z,26.02
2023-04-10T01:35:10.114Z,27.52
2023-04-10T01:37:45.249Z,27.06
2023-04-10T01:40:18.327Z,26.03
2023-04-10T01:42:55.248Z,25.85
2023-04-10T01:45:35.230Z,25.73
2023-04-10T01:48:07.148Z,25.75
2023-04-10T01:50:38.615Z,25.93
2023-04-10T01:53:10.062Z,25.59
2023-04-10T01:55:42.006Z,25.73
2023-04-10T01:58:15.231Z,25.33
2023-04-10T02:00:46.628Z,25.61
2023-04-10T02:03:19.485Z,25.35
2023-04-10T02:06:19.248Z,25.45
2023-04-10T02:09:08.600Z,25.38
2023-04-10T02:12:01.055Z,25.28
2023-04-10T02:14:34.896Z,25.56
2023-04-10T02:17:06.239Z,25.45
2023-04-10T02:19:36.696Z,25.82
2023-04-10T02:22:08.335Z,26.46
2023-04-10T02:24:39.812Z,25.77
2023-04-10T02:27:11.243Z,25.07
2023-04-10T02:29:42.003Z,25.29
2023-04-10T02:32:13.524Z,25.41
2023-04-10T02:34:45.377Z,25.10
2023-04-10T02:37:16.882Z,24.99
2023-04-10T02:39:47.648Z,25.03
2023-04-10T02:42:19.650Z,24.88
2023-04-10T02:44:50.706Z,25.18
2023-04-10T02:47:21.963Z,24.89
2023-04-10T02:49:53.790Z,24.99
2023-04-10T02:52:24.609Z,25.04
2023-04-10T02:54:55.595Z,25.47
2023-04-10T02:57:33.366Z,26.14
2023-04-10T03:00:07.202Z,26.79
2023-04-10T03:02:58.614Z,26.46
2023-04-10T03:05:35.032Z,26.43
2023-04-10T03:08:06.549Z,26.57
2023-04-10T03:10:37.837Z,26.08
2023-04-10T03:13:09.731Z,25.65
2023-04-10T03:15:40.897Z,26.01
2023-04-10T03:18:12.467Z,26.97
2023-04-10T03:20:45.569Z,27.29
2023-04-10T03:23:17.301Z,27.53
2023-04-10T03:25:55.252Z,27.27
2023-04-10T03:28:31.176Z,27.39
2023-04-10T03:31:02.610Z,27.34
2023-04-10T03:33:37.902Z,26.15
2023-04-10T03:36:10.784Z,26.12
2023-04-10T03:38:42.115Z,25.90
2023-04-10T03:41:13.471Z,25.76
2023-04-10T03:43:45.262Z,25.38
2023-04-10T03:46:16.982Z,25.49
2023-04-10T03:48:48.674Z,25.56
2023-04-10T03:51:20.270Z,25.02
2023-04-10T03:53:51.188Z,25.30
2023-04-10T03:56:22.569Z,25.11
2023-04-10T03:58:53.932Z,25.39
2023-04-10T04:01:25.683Z,25.35
2023-04-10T04:04:11.207Z,24.70
2023-04-10T04:07:02.470Z,24.41
2023-04-10T04:09:50.162Z,24.30
2023-04-10T04:12:39.613Z,24.13
2023-04-10T04:15:27.167Z,24.11
2023-04-10T04:18:07.854Z,23.89
2023-04-10T04:20:50.916Z,23.72
2023-04-10T04:23:44.497Z,23.12
2023-04-10T04:26:54.156Z,22.78
2023-04-10T04:29:51.483Z,22.74
2023-04-10T04:32:28.799Z,23.23
2023-04-10T04:35:26.352Z,23.01
2023-04-10T04:38:15.472Z,22.69
2023-04-10T04:41:24.944Z,23.08
2023-04-10T04:44:22.191Z,23.15
2023-04-10T04:47:14.592Z,23.29
2023-04-10T04:50:08.705Z,22.92
2023-04-10T04:52:58.372Z,22.81
2023-04-10T04:55:49.349Z,23.24
2023-04-10T04:58:55.708Z,23.22
2023-04-10T05:01:37.779Z,23.06
2023-04-10T05:04:23.605Z,23.10
2023-04-10T05:07:02.536Z,22.88
2023-04-10T05:09:55.664Z,22.99
2023-04-10T05:13:04.543Z,22.90
2023-04-10T05:15:48.431Z,22.75
2023-04-10T05:18:39.852Z,22.56
2023-04-10T05:21:28.878Z,22.31
2023-04-10T05:24:25.117Z,22.19
2023-04-10T05:27:14.234Z,22.12
2023-04-10T05:30:10.373Z,21.98
2023-04-10T05:32:52.859Z,21.91
2023-04-10T05:35:41.743Z,22.10
2023-04-10T05:38:39.185Z,22.01
2023-04-10T05:41:39.798Z,21.66
2023-04-10T05:44:19.635Z,21.57
2023-04-10T05:47:05.948Z,21.39
2023-04-10T05:49:55.431Z,21.46
2023-04-10T05:52:40.555Z,21.41
2023-04-10T05:55:34.755Z,21.41
2023-04-10T05:58:38.391Z,21.29
2023-04-10T06:01:25.940Z,21.39
2023-04-10T06:04:04.371Z,21.44
2023-04-10T06:06:36.071Z,21.51
2023-04-10T06:09:07.826Z,21.28
2023-04-10T06:11:38.949Z,21.39
2023-04-10T06:14:09.980Z,21.27
2023-04-10T06:16:46.504Z,21.29
2023-04-10T06:19:18.946Z,21.34
2023-04-10T06:21:50.852Z,21.19
2023-04-10T06:24:23.324Z,21.09
2023-04-10T06:26:55.189Z,20.97
2023-04-10T06:29:27.790Z,20.95
2023-04-10T06:31:58.997Z,20.77
2023-04-10T06:34:31.983Z,20.84
2023-04-10T06:37:07.320Z,20.81
2023-04-10T06:39:38.532Z,20.66
2023-04-10T06:42:09.668Z,20.65
2023-04-10T06:45:10.504Z,20.42
2023-04-10T06:47:42.235Z,20.38
2023-04-10T06:50:13.593Z,20.14
2023-04-10T06:52:44.456Z,20.21
2023-04-10T06:55:15.854Z,20.13
2023-04-10T06:57:47.057Z,20.17
2023-04-10T07:00:18.281Z,20.17
2023-04-10T07:02:49.586Z,20.07
2023-04-10T07:05:20.588Z,19.91
2023-04-10T07:07:52.420Z,19.89
2023-04-10T07:10:23.621Z,19.80
2023-04-10T07:12:55.111Z,19.81
2023-04-10T07:15:27.722Z,19.93
2023-04-10T07:17:58.890Z,19.80
2023-04-10T07:20:30.373Z,19.72
2023-04-10T07:23:00.922Z,19.96
2023-04-10T07:25:32.581Z,19.92
2023-04-10T07:28:03.211Z,19.88
2023-04-10T07:30:34.529Z,20.12
2023-04-10T07:33:05.851Z,19.91
2023-04-10T07:35:37.964Z,20.00
2023-04-10T07:38:09.094Z,19.93
2023-04-10T07:40:40.200Z,19.93
2023-04-10T07:43:11.714Z,19.94
2023-04-10T07:45:43.214Z,19.32
2023-04-10T07:48:15.181Z,18.98
2023-04-10T07:50:46.744Z,18.71
2023-04-10T07:53:17.961Z,18.91
2023-04-10T07:55:52.233Z,19.10
2023-04-10T07:58:24.021Z,18.96
2023-04-10T08:00:55.654Z,18.90
2023-04-10T08:03:29.126Z,18.92
2023-04-10T08:06:00.365Z,18.81
2023-04-10T08:08:31.472Z,18.94
2023-04-10T08:11:02.932Z,18.79
2023-04-10T08:13:34.030Z,18.66
2023-04-10T08:16:05.394Z,18.64
2023-04-10T08:18:36.803Z,18.71
2023-04-10T08:21:08.552Z,18.62
2023-04-10T08:23:39.911Z,18.62
2023-04-10T08:26:11.155Z,18.73
2023-04-10T08:28:42.143Z,18.71
2023-04-10T08:31:13.382Z,18.59
2023-04-10T08:33:44.806Z,18.55
2023-04-10T08:36:20.325Z,18.54
2023-04-10T08:38:51.764Z,18.57
2023-04-10T08:41:23.233Z,18.60
2023-04-10T08:43:54.733Z,18.69
2023-04-10T08:46:29.744Z,18.66
2023-04-10T08:49:07.070Z,18.73
2023-04-10T08:52:01.615Z,18.57
2023-04-10T08:54:34.998Z,18.65
2023-04-10T08:57:07.326Z,18.69
2023-04-10T08:59:39.586Z,18.59
2023-04-10T09:02:10.963Z,18.73
2023-04-10T09:04:42.307Z,18.66
2023-04-10T09:07:15.179Z,18.63
2023-04-10T09:09:47.613Z,18.60
2023-04-10T09:12:19.114Z,18.60
2023-04-10T09:14:54.746Z,18.41
2023-04-10T09:17:26.961Z,18.55
2023-04-10T09:19:58.613Z,18.51
2023-04-10T09:22:34.454Z,18.51
2023-04-10T09:25:07.099Z,18.39
2023-04-10T09:27:40.202Z,18.22
2023-04-10T09:30:11.839Z,18.20
2023-04-10T09:32:45.303Z,18.08
2023-04-10T09:35:17.730Z,18.19
2023-04-10T09:37:49.329Z,18.12
2023-04-10T09:40:27.894Z,18.10
2023-04-10T09:42:59.524Z,18.03
2023-04-10T09:45:49.498Z,17.86
2023-04-10T09:48:21.672Z,17.75
2023-04-10T09:50:53.463Z,17.77
2023-04-10T09:53:24.780Z,17.66
2023-04-10T09:55:56.051Z,17.67
2023-04-10T09:58:27.971Z,17.70
2023-04-10T10:00:59.497Z,17.71
2023-04-10T10:03:30.699Z,17.75
2023-04-10T10:06:01.776Z,17.80
2023-04-10T10:08:37.072Z,17.67
2023-04-10T10:11:15.934Z,17.65
2023-04-10T10:13:51.641Z,17.60
2023-04-10T10:16:32.630Z,17.51
2023-04-10T10:19:22.523Z,17.48
2023-04-10T10:21:54.953Z,17.48
2023-04-10T10:24:27.739Z,17.43
2023-04-10T10:26:59.729Z,17.32
2023-04-10T10:29:30.075Z,17.28
2023-04-10T10:32:04.437Z,17.34
2023-04-10T10:34:36.284Z,17.23
2023-04-10T10:37:07.210Z,17.14
2023-04-10T10:39:57.217Z,17.08
2023-04-10T10:42:33.757Z,16.92
2023-04-10T10:45:34.000Z,16.92
2023-04-10T10:48:05.616Z,16.82
2023-04-10T10:50:54.078Z,16.81
2023-04-10T10:53:46.503Z,16.81
2023-04-10T10:56:28.304Z,16.64
2023-04-10T10:59:00.321Z,16.78
2023-04-10T11:01:31.885Z,16.73
2023-04-10T11:04:03.739Z,16.68
2023-04-10T11:06:54.458Z,16.72
2023-04-10T11:09:51.922Z,16.53
2023-04-10T11:12:25.522Z,16.34
2023-04-10T11:15:08.747Z,16.49
2023-04-10T11:17:55.671Z,16.35
2023-04-10T11:20:30.398Z,16.44
2023-04-10T11:23:14.762Z,16.42
2023-04-10T11:25:55.092Z,16.37
2023-04-10T11:28:35.701Z,16.31
2023-04-10T11:31:22.348Z,16.18
2023-04-10T11:34:00.217Z,16.02
2023-04-10T11:36:32.135Z,16.11
2023-04-10T11:39:07.441Z,16.11
2023-04-10T11:41:44.287Z,16.01
2023-04-10T11:44:38.203Z,16.00
2023-04-10T11:47:09.357Z,15.92
2023-04-10T11:49:40.708Z,15.71
2023-04-10T11:52:11.852Z,15.79
2023-04-10T11:54:50.886Z,15.68
2023-04-10T11:57:22.373Z,15.74
2023-04-10T11:59:53.604Z,15.78
2023-04-10T12:02:25.226Z,16.00
2023-04-10T12:05:04.878Z,16.00
2023-04-10T12:07:36.216Z,16.11
2023-04-10T12:10:08.625Z,16.05
2023-04-10T12:12:39.976Z,16.14
2023-04-10T12:15:32.298Z,16.06
2023-04-10T12:18:05.717Z,16.04
2023-04-10T12:20:37.743Z,16.00
2023-04-10T12:23:09.219Z,15.94
2023-04-10T12:25:41.234Z,15.91
2023-04-10T12:28:22.889Z,15.88
2023-04-10T12:30:55.249Z,15.90
2023-04-10T12:33:26.891Z,15.94
2023-04-10T12:35:58.394Z,15.97
2023-04-10T12:38:41.059Z,15.91
2023-04-10T12:41:13.391Z,16.16
2023-04-10T12:43:46.220Z,16.22
2023-04-10T12:46:29.208Z,16.35
2023-04-10T12:49:12.369Z,16.39
2023-04-10T12:51:47.628Z,16.21
2023-04-10T12:54:32.199Z,16.23
2023-04-10T12:57:07.723Z,16.04
2023-04-10T12:59:38.880Z,16.00
2023-04-10T13:02:09.876Z,15.95
2023-04-10T13:04:41.551Z,16.05
2023-04-10T13:07:13.123Z,15.95
2023-04-10T13:09:44.288Z,16.07
2023-04-10T13:12:15.798Z,16.06
2023-04-10T13:14:48.230Z,15.83
2023-04-10T13:17:19.275Z,15.81
2023-04-10T13:19:50.608Z,15.75
2023-04-10T13:22:22.557Z,15.80
2023-04-10T13:24:53.682Z,15.69
2023-04-10T13:27:28.480Z,15.60
2023-04-10T13:29:59.897Z,15.69
2023-04-10T13:32:31.623Z,15.61
2023-04-10T13:35:03.041Z,15.59
2023-04-10T13:37:34.807Z,15.62
2023-04-10T13:40:06.835Z,15.62
2023-04-10T13:42:41.273Z,15.78
2023-04-10T13:45:18.057Z,15.85
2023-04-10T13:47:49.380Z,15.97
2023-04-10T13:50:20.757Z,16.02
2023-04-10T13:52:53.513Z,16.07
2023-04-10T13:55:24.641Z,16.12
2023-04-10T13:57:56.278Z,16.23
2023-04-10T14:00:27.811Z,16.71
2023-04-10T14:02:59.386Z,17.03
2023-04-10T14:05:30.640Z,17.10
2023-04-10T14:08:01.765Z,16.90
2023-04-10T14:10:32.962Z,16.65
2023-04-10T14:13:03.988Z,16.62
2023-04-10T14:15:36.342Z,16.59
2023-04-10T14:18:07.793Z,16.67
2023-04-10T14:20:39.209Z,16.55
2023-04-10T14:23:11.135Z,16.52
2023-04-10T14:25:42.330Z,16.56
2023-04-10T14:28:19.350Z,16.65
2023-04-10T14:30:52.660Z,16.53
2023-04-10T14:33:23.968Z,16.46
2023-04-10T14:35:56.515Z,16.46
2023-04-10T14:38:27.798Z,16.50
2023-04-10T14:40:59.141Z,16.44
2023-04-10T14:43:30.346Z,16.47
2023-04-10T14:46:01.996Z,16.40
2023-04-10T14:48:33.307Z,16.52
2023-04-10T14:51:05.936Z,16.48
2023-04-10T14:53:37.373Z,16.34
2023-04-10T14:56:16.301Z,16.24
2023-04-10T14:58:49.206Z,16.10
2023-04-10T15:01:20.577Z,16.06
2023-04-10T15:03:52.220Z,16.12
2023-04-10T15:06:23.458Z,16.01
2023-04-10T15:09:23.692Z,16.00
2023-04-10T15:12:10.082Z,15.86
2023-04-10T15:15:04.836Z,15.85
2023-04-10T15:18:02.330Z,15.94
2023-04-10T15:21:04.198Z,15.83
2023-04-10T15:24:00.207Z,15.86
2023-04-10T15:26:31.942Z,15.87
2023-04-10T15:29:03.066Z,15.82
2023-04-10T15:31:34.362Z,15.81
2023-04-10T15:34:05.639Z,15.85
2023-04-10T15:36:36.599Z,15.77
2023-04-10T15:39:07.784Z,15.80
2023-04-10T15:41:39.458Z,15.96
2023-04-10T15:44:10.824Z,15.91
2023-04-10T15:46:44.342Z,15.94
2023-04-10T15:49:29.816Z,15.94
2023-04-10T15:52:06.836Z,15.93
2023-04-10T15:55:10.756Z,16.02
2023-04-10T15:58:17.227Z,15.98
2023-04-10T16:00:51.763Z,16.10
2023-04-10T16:03:43.873Z,16.11
2023-04-10T16:06:53.602Z,16.12
2023-04-10T16:09:41.115Z,16.11
2023-04-10T16:12:18.677Z,16.03
2023-04-10T16:14:56.710Z,16.09
2023-04-10T16:18:11.068Z,16.24
2023-04-10T16:20:45.485Z,16.22
2023-04-10T16:23:17.177Z,16.34
2023-04-10T16:25:48.428Z,16.47
2023-04-10T16:28:19.679Z,16.52
2023-04-10T16:30:51.180Z,16.55
2023-04-10T16:33:22.382Z,16.51
2023-04-10T16:35:55.268Z,16.52
2023-04-10T16:38:29.934Z,16.50
2023-04-10T16:41:04.818Z,16.47
2023-04-10T16:43:35.721Z,16.39
2023-04-10T16:46:07.284Z,16.45
2023-04-10T16:48:37.548Z,16.39
2023-04-10T16:51:09.185Z,16.34
2023-04-10T16:53:40.348Z,16.33
2023-04-10T16:56:12.195Z,16.14
2023-04-10T16:58:43.620Z,16.17
2023-04-10T17:01:21.124Z,16.20
2023-04-10T17:03:52.244Z,16.20
2023-04-10T17:06:23.756Z,16.14
2023-04-10T17:08:55.224Z,16.05
2023-04-10T17:11:26.850Z,16.07
2023-04-10T17:13:58.231Z,16.06
2023-04-10T17:16:29.493Z,15.98
2023-04-10T17:19:00.537Z,15.94
2023-04-10T17:21:32.776Z,15.95
2023-04-10T17:24:05.157Z,15.93
2023-04-10T17:26:40.837Z,15.88
2023-04-10T17:29:11.862Z,15.86
2023-04-10T17:31:43.332Z,15.92
2023-04-10T17:34:14.895Z,15.85
2023-04-10T17:36:46.329Z,15.86
2023-04-10T17:39:44.806Z,15.90
2023-04-10T17:42:36.137Z,15.95
2023-04-10T17:45:08.556Z,15.85
2023-04-10T17:47:40.090Z,15.84
2023-04-10T17:50:11.817Z,15.78
2023-04-10T17:52:43.170Z,15.81
2023-04-10T17:55:20.555Z,15.89
2023-04-10T17:57:52.313Z,15.87
2023-04-10T18:00:24.134Z,15.91
2023-04-10T18:03:01.453Z,15.94
2023-04-10T18:05:33.376Z,15.98
2023-04-10T18:08:05.106Z,15.84
2023-04-10T18:10:36.840Z,15.85
2023-04-10T18:13:09.070Z,16.00
2023-04-10T18:15:40.055Z,15.93
2023-04-10T18:18:11.662Z,15.87
2023-04-10T18:20:42.740Z,15.85
2023-04-10T18:23:13.988Z,15.91
2023-04-10T18:25:55.747Z,15.85
2023-04-10T18:28:27.203Z,15.85
2023-04-10T18:30:59.730Z,15.94
2023-04-10T18:33:31.113Z,15.95
2023-04-10T18:36:02.440Z,15.93
2023-04-10T18:38:36.985Z,15.96
2023-04-10T18:41:08.890Z,16.01
2023-04-10T18:43:40.560Z,15.98
2023-04-10T18:46:31.790Z,16.08
2023-04-10T18:49:06.896Z,16.14
2023-04-10T18:51:40.298Z,16.15
2023-04-10T18:54:12.180Z,16.22
2023-04-10T18:56:43.249Z,16.19
2023-04-10T18:59:14.848Z,16.19
2023-04-10T19:01:46.297Z,16.29
2023-04-10T19:04:17.442Z,16.34
2023-04-10T19:06:48.548Z,16.20
2023-04-10T19:09:19.922Z,16.24
2023-04-10T19:11:50.928Z,16.11
2023-04-10T19:14:22.168Z,16.13
2023-04-10T19:16:53.202Z,16.12
2023-04-10T19:19:24.294Z,16.10
2023-04-10T19:21:55.574Z,16.11
2023-04-10T19:24:27.216Z,16.12
2023-04-10T19:26:58.952Z,16.25
2023-04-10T19:29:29.590Z,16.20
2023-04-10T19:32:00.884Z,16.37
2023-04-10T19:34:32.172Z,16.58
2023-04-10T19:37:03.850Z,16.65
2023-04-10T19:39:35.275Z,16.62
2023-04-10T19:42:06.728Z,16.60
2023-04-10T19:44:41.019Z,16.48
2023-04-10T19:47:12.100Z,16.88
2023-04-10T19:49:43.157Z,16.67
2023-04-10T19:52:14.341Z,17.25
2023-04-10T19:54:45.691Z,17.28
2023-04-10T19:57:17.345Z,17.53
2023-04-10T19:59:48.566Z,17.26
2023-04-10T20:02:20.175Z,17.33
2023-04-10T20:04:52.138Z,17.32
2023-04-10T20:07:23.282Z,17.46
2023-04-10T20:09:57.614Z,17.55
2023-04-10T20:12:28.780Z,18.06
2023-04-10T20:15:00.075Z,18.29
2023-04-10T20:17:33.721Z,18.86
2023-04-10T20:20:05.330Z,18.88
2023-04-10T20:22:36.534Z,18.97
2023-04-10T20:25:07.973Z,18.76
2023-04-10T20:27:39.375Z,18.56
2023-04-10T20:30:11.435Z,19.31
2023-04-10T20:32:42.561Z,19.25
2023-04-10T20:35:13.942Z,19.63
2023-04-10T20:37:45.135Z,19.13
2023-04-10T20:40:16.223Z,19.06
2023-04-10T20:42:47.777Z,18.95
2023-04-10T20:45:19.010Z,19.02
2023-04-10T20:47:50.199Z,18.80
2023-04-10T20:50:21.431Z,18.87
2023-04-10T20:52:52.563Z,18.78
2023-04-10T20:55:23.648Z,18.76
2023-04-10T20:57:55.309Z,18.68
2023-04-10T21:00:26.625Z,18.58
2023-04-10T21:02:57.912Z,18.39
2023-04-10T21:05:29.860Z,18.45
2023-04-10T21:08:01.092Z,18.38
2023-04-10T21:10:32.331Z,18.29
2023-04-10T21:13:05.901Z,18.24
2023-04-10T21:15:37.247Z,18.24
2023-04-10T21:18:08.626Z,18.21
2023-04-10T21:20:39.858Z,18.08
2023-04-10T21:23:11.198Z,18.06
2023-04-10T21:25:42.276Z,18.09
2023-04-10T21:28:13.561Z,18.05
2023-04-10T21:30:44.798Z,17.94
2023-04-10T21:33:16.579Z,17.96
2023-04-10T21:35:47.655Z,17.97
2023-04-10T21:38:18.883Z,17.82
2023-04-10T21:40:56.272Z,17.91
2023-04-10T21:43:27.424Z,17.93
2023-04-10T21:45:59.444Z,17.86
2023-04-10T21:48:31.696Z,17.84
2023-04-10T21:51:04.675Z,17.87
2023-04-10T21:53:35.684Z,17.83
2023-04-10T21:56:06.927Z,17.95
2023-04-10T21:58:39.484Z,17.83
2023-04-10T22:01:10.503Z,18.02
2023-04-10T22:03:42.231Z,18.21
2023-04-10T22:06:13.993Z,18.21
2023-04-10T22:08:45.100Z,18.44
2023-04-10T22:11:16.189Z,18.66
2023-04-10T22:13:47.649Z,18.62
2023-04-10T22:16:19.190Z,18.80
2023-04-10T22:18:53.751Z,18.87
2023-04-10T22:21:25.541Z,18.95
2023-04-10T22:23:56.803Z,19.00
2023-04-10T22:26:28.031Z,19.37
2023-04-10T22:29:00.698Z,20.05
2023-04-10T22:31:31.966Z,21.33
2023-04-10T22:34:03.044Z,20.47
2023-04-10T22:36:35.412Z,20.87
2023-04-10T22:39:07.013Z,21.13
2023-04-10T22:41:39.234Z,22.12
2023-04-10T22:44:12.085Z,22.51
2023-04-10T22:46:43.721Z,22.14
2023-04-10T22:49:18.549Z,22.99
2023-04-10T22:51:50.153Z,22.88
2023-04-10T22:54:21.400Z,22.47
2023-04-10T22:56:52.622Z,23.38
2023-04-10T22:59:23.775Z,22.79
2023-04-10T23:01:55.216Z,23.72
2023-04-10T23:04:26.759Z,24.51
2023-04-10T23:06:58.476Z,24.92
2023-04-10T23:09:30.029Z,24.73
2023-04-10T23:12:01.168Z,24.79
2023-04-10T23:14:32.304Z,23.77
2023-04-10T23:17:03.475Z,22.94
2023-04-10T23:19:34.932Z,22.90
2023-04-10T23:22:06.953Z,23.63
2023-04-10T23:24:38.050Z,23.61
2023-04-10T23:27:09.548Z,23.56
2023-04-10T23:29:41.062Z,23.32
2023-04-10T23:32:12.228Z,23.53
2023-04-10T23:34:43.198Z,23.43
2023-04-10T23:37:14.687Z,24.16
2023-04-10T23:39:45.936Z,23.97
2023-04-10T23:42:17.048Z,23.96
2023-04-10T23:44:48.210Z,24.17
2023-04-10T23:47:18.981Z,24.44
2023-04-10T23:49:50.624Z,24.47
2023-04-10T23:52:22.022Z,23.43
2023-04-10T23:54:53.410Z,24.16
2023-04-10T23:57:24.664Z,23.96
2023-04-10T23:59:55.834Z,23.59
